Terminal Aerodrome Forecast
Issued by NWS Central Illinois

Home | Current Version | Previous Version | Text Only | Print | Product List | Glossary On
Versions: 1 2 3 4 5 6 7 8 9 10 11 12 13 14 15
748
FTUS43 KILX 110535
TAFPIA
TAF
KPIA 110535Z 1106/1206 VRB05KT P6SM BKN100
     FM110900 36005KT P6SM SCT250
     FM120000 VRB03KT P6SM BKN080
     FM120300 VRB04KT 5SM -SN OVC035=

USA.gov is the U.S. government's official web portal to all federal, state and local government web resources and services.